Time;durP1;ratioP1;P1;durP2;ratioP2;P2;SDS_P1;SDS_P2;PMS_P1;PMS_P2;Temp;Humidity;BMP_temperature;BMP_pressure;BME280_temperature;BME280_humidity;BME280_pressure;Samples;Min_cycle;Max_cycle;Signal;HPM_P1;HPM_P2
2021/10/10 00:02:11;;;;;;;45.85;27.25;;;;;;;2.14;65.12;102077.30;1703943;83;21032;-72
2021/10/10 00:04:37;;;;;;;37.25;27.75;;;;;;;2.18;65.25;102083.70;1709530;83;21134;-71
2021/10/10 00:07:03;;;;;;;44.18;27.80;;;;;;;2.20;65.23;102080.52;1709785;83;21048;-72
2021/10/10 00:09:29;;;;;;;38.38;28.05;;;;;;;2.24;65.19;102082.02;1704780;83;21723;-77
2021/10/10 00:11:55;;;;;;;44.55;27.55;;;;;;;2.24;65.25;102078.94;1709379;83;21131;-72
2021/10/10 00:14:23;;;;;;;43.43;28.07;;;;;;;2.28;65.20;102077.81;1705789;83;21073;-71
2021/10/10 00:16:48;;;;;;;43.38;28.90;;;;;;;2.30;65.25;102077.73;1701013;83;21017;-72
2021/10/10 00:19:14;;;;;;;43.60;28.85;;;;;;;2.36;65.03;102075.20;1644805;86;21154;-76
2021/10/10 00:21:40;;;;;;;40.63;27.07;;;;;;;2.39;64.89;102073.20;1697195;83;20994;-74
2021/10/10 00:24:07;;;;;;;44.90;28.95;;;;;;;2.42;64.71;102072.19;1685635;84;21009;-73
2021/10/10 00:26:33;;;;;;;40.50;27.27;;;;;;;2.48;64.61;102074.44;1646348;85;21061;-73
2021/10/10 00:28:59;;;;;;;41.73;27.82;;;;;;;2.50;64.40;102078.66;1675037;85;21085;-74
2021/10/10 00:31:25;;;;;;;40.48;28.95;;;;;;;2.58;64.23;102070.77;1642538;86;21092;-72
2021/10/10 00:33:52;;;;;;;44.48;28.20;;;;;;;2.65;64.04;102073.41;1649793;84;21552;-71
2021/10/10 00:36:18;;;;;;;;;;;;;;;2.70;63.60;102075.30;1645658;86;21588;-70
2021/10/10 00:38:44;;;;;;;45.03;29.00;;;;;;;2.77;63.29;102079.25;1659341;85;20207;-72
2021/10/10 00:41:12;;;;;;;42.20;27.77;;;;;;;2.77;62.98;102077.94;1647561;85;21622;-72
2021/10/10 00:43:38;;;;;;;48.43;28.00;;;;;;;2.84;62.66;102077.07;1663259;86;21018;-71
2021/10/10 00:46:04;;;;;;;39.05;27.20;;;;;;;2.92;62.32;102075.66;1648554;84;21011;-76
2021/10/10 00:48:32;;;;;;;36.53;26.57;;;;;;;2.98;62.35;102072.28;1717273;83;21064;-71
2021/10/10 00:50:58;;;;;;;38.80;26.25;;;;;;;3.03;62.17;102072.81;1704212;83;21542;-74
2021/10/10 00:53:24;;;;;;;32.10;22.85;;;;;;;3.08;62.18;102074.70;1707746;83;21562;-71
2021/10/10 00:55:53;;;;;;;35.73;24.90;;;;;;;3.11;62.42;102070.56;1716178;81;21026;-76
2021/10/10 00:58:22;;;;;;;38.40;24.87;;;;;;;3.14;62.60;102065.08;1714575;83;21898;-72
2021/10/10 01:00:52;;;;;;;32.47;23.70;;;;;;;3.15;62.48;102072.05;1716752;83;21100;-71
2021/10/10 01:03:18;;;;;;;34.03;23.63;;;;;;;3.21;62.23;102066.86;1717425;83;20984;-71
2021/10/10 01:05:44;;;;;;;37.58;23.42;;;;;;;3.25;61.84;102063.92;1725119;82;21005;-71
2021/10/10 01:08:15;;;;;;;38.13;23.83;;;;;;;3.26;61.82;102068.74;1708624;82;21019;-71
2021/10/10 01:10:44;;;;;;;34.73;23.50;;;;;;;3.28;61.76;102069.00;1714976;83;21035;-71
2021/10/10 01:13:13;;;;;;;35.03;24.40;;;;;;;3.31;61.42;102072.77;1713884;82;20975;-72
2021/10/10 01:15:39;;;;;;;34.73;24.07;;;;;;;3.33;61.51;102068.70;1709841;82;21031;-72
2021/10/10 01:18:05;;;;;;;35.95;23.25;;;;;;;3.39;61.24;102068.32;1708245;83;21102;-75
2021/10/10 01:20:46;;;;;;;37.85;23.50;;;;;;;3.42;60.96;102066.78;1717015;83;21491;-71
2021/10/10 01:23:13;;;;;;;28.70;20.33;;;;;;;3.46;60.77;102060.84;1718624;82;21131;-71
2021/10/10 01:25:39;;;;;;;29.83;21.37;;;;;;;3.48;60.64;102067.73;1719470;82;20970;-71
2021/10/10 01:28:06;;;;;;;29.10;20.15;;;;;;;3.49;60.51;102065.45;1719496;83;21328;-75
2021/10/10 01:30:32;;;;;;;27.67;20.05;;;;;;;3.50;60.34;102060.56;1720566;82;21001;-73
2021/10/10 01:32:59;;;;;;;27.07;20.20;;;;;;;3.53;60.14;102056.03;1712929;83;21047;-71
2021/10/10 01:35:26;;;;;;;28.87;20.27;;;;;;;3.52;60.08;102060.44;1703995;79;21016;-73
2021/10/10 01:37:52;;;;;;;26.42;20.08;;;;;;;3.55;59.94;102054.98;1715599;82;21011;-75
2021/10/10 01:40:19;;;;;;;31.60;21.17;;;;;;;3.54;59.90;102062.50;1711432;83;21020;-69
2021/10/10 01:42:45;;;;;;;26.37;18.52;;;;;;;3.56;59.78;102056.69;1710726;83;21075;-72
2021/10/10 01:45:18;;;;;;;29.37;20.12;;;;;;;3.57;59.76;102060.99;1704710;78;21665;-72
2021/10/10 01:47:44;;;;;;;28.40;19.27;;;;;;;3.58;59.59;102060.51;1714935;83;21001;-77
2021/10/10 01:50:11;;;;;;;27.05;17.62;;;;;;;3.60;59.52;102063.44;1702572;83;21126;-71
2021/10/10 01:52:42;;;;;;;26.75;17.98;;;;;;;3.64;59.22;102050.91;1709904;83;20973;-74
2021/10/10 01:55:09;;;;;;;22.57;15.83;;;;;;;3.67;58.91;102059.46;1717698;80;21097;-75
2021/10/10 01:57:36;;;;;;;27.87;17.60;;;;;;;3.73;58.61;102052.06;1704361;83;21614;-72
2021/10/10 02:00:08;;;;;;;25.67;16.60;;;;;;;3.77;57.99;102053.55;1699892;83;21535;-71
2021/10/10 02:02:41;;;;;;;27.13;17.00;;;;;;;3.81;57.33;102054.58;1719198;83;21101;-72
2021/10/10 02:05:09;;;;;;;23.42;15.48;;;;;;;3.84;56.73;102060.11;1718543;83;21034;-70
2021/10/10 02:07:36;;;;;;;20.97;16.17;;;;;;;3.86;56.66;102063.04;1718199;83;21237;-75
2021/10/10 02:10:06;;;;;;;26.23;17.00;;;;;;;3.88;56.34;102055.86;1702980;83;21039;-73
2021/10/10 02:12:35;;;;;;;28.20;17.93;;;;;;;3.89;55.96;102056.22;1728278;80;20975;-71
2021/10/10 02:15:02;;;;;;;23.73;15.53;;;;;;;3.90;55.67;102061.05;1713192;82;21483;-71
2021/10/10 02:17:28;;;;;;;25.37;15.77;;;;;;;3.92;55.60;102059.59;1708047;83;21060;-75
2021/10/10 02:19:55;;;;;;;23.18;16.57;;;;;;;3.92;55.47;102059.14;1701622;83;22154;-72
2021/10/10 02:22:21;;;;;;;25.82;16.12;;;;;;;3.92;55.22;102055.64;1716344;79;21091;-77
2021/10/10 02:24:47;;;;;;;23.57;15.50;;;;;;;3.90;55.12;102057.09;1716994;83;21603;-72
2021/10/10 02:27:13;;;;;;;19.40;13.83;;;;;;;3.90;55.24;102060.56;1721010;83;21095;-71
2021/10/10 02:29:39;;;;;;;30.82;14.85;;;;;;;3.90;55.27;102061.88;1725960;82;21007;-72
2021/10/10 02:32:05;;;;;;;19.67;14.78;;;;;;;3.90;55.22;102059.24;1706428;82;21088;-76
2021/10/10 02:34:31;;;;;;;18.98;13.72;;;;;;;3.90;55.11;102055.28;1716700;79;21574;-73
2021/10/10 02:36:57;;;;;;;27.35;16.42;;;;;;;3.90;55.11;102058.41;1717951;83;21013;-75
2021/10/10 02:39:23;;;;;;;21.37;15.13;;;;;;;3.88;54.95;102061.59;1730388;83;20942;-81
2021/10/10 02:41:50;;;;;;;21.73;14.13;;;;;;;3.88;54.87;102066.42;1723049;83;21321;-79
2021/10/10 02:44:16;;;;;;;18.82;13.53;;;;;;;3.87;55.05;102061.23;1731507;79;20973;-75
2021/10/10 02:46:43;;;;;;;21.80;15.63;;;;;;;3.87;54.96;102063.87;1708883;83;21563;-75
2021/10/10 02:49:08;;;;;;;19.85;13.95;;;;;;;3.88;54.87;102070.83;1722421;83;20997;-73
2021/10/10 02:51:34;;;;;;;22.58;15.63;;;;;;;3.87;54.62;102066.52;1725869;82;21016;-74
2021/10/10 02:54:00;;;;;;;25.50;14.80;;;;;;;3.87;54.42;102070.47;1727619;83;21015;-75
2021/10/10 02:56:27;;;;;;;19.10;14.63;;;;;;;3.86;54.27;102072.72;1712177;82;21087;-73
2021/10/10 02:58:53;;;;;;;24.98;16.02;;;;;;;3.78;54.38;102066.64;1722073;83;21111;-75
2021/10/10 03:01:19;;;;;;;18.55;13.88;;;;;;;3.77;54.50;102068.05;1718917;82;21605;-74
2021/10/10 03:03:45;;;;;;;18.85;14.87;;;;;;;3.76;54.91;102066.38;1702852;83;21022;-76
2021/10/10 03:06:11;;;;;;;20.27;15.48;;;;;;;3.75;54.92;102063.36;1703262;83;21052;-75
2021/10/10 03:08:37;;;;;;;20.27;13.25;;;;;;;3.75;54.81;102069.50;1716186;83;21039;-79
2021/10/10 03:11:05;;;;;;;22.93;13.50;;;;;;;3.76;54.87;102062.42;1710622;82;21095;-74
2021/10/10 03:13:32;;;;;;;19.42;13.60;;;;;;;3.77;54.79;102064.97;1700533;84;22179;-76
2021/10/10 03:15:58;;;;;;;20.70;13.60;;;;;;;3.77;54.86;102066.73;1696498;83;20977;-85
2021/10/10 03:18:26;;;;;;;20.75;14.95;;;;;;;3.76;54.79;102064.58;1708155;78;21037;-74
2021/10/10 03:20:52;;;;;;;23.93;13.83;;;;;;;3.77;54.62;102058.83;1717770;83;21020;-77
2021/10/10 03:23:19;;;;;;;19.62;13.03;;;;;;;3.80;54.57;102062.59;1649111;85;21097;-81
2021/10/10 03:25:45;;;;;;;15.93;12.07;;;;;;;3.81;54.75;102064.30;1704098;83;21084;-80
2021/10/10 03:28:11;;;;;;;19.48;15.35;;;;;;;3.80;54.68;102059.47;1704444;83;21063;-76
2021/10/10 03:30:37;;;;;;;19.12;11.70;;;;;;;3.80;54.60;102055.99;1703861;84;21135;-77
2021/10/10 03:33:03;;;;;;;14.33;11.35;;;;;;;3.80;54.52;102057.31;1675032;84;21024;-75
2021/10/10 03:35:29;;;;;;;15.38;12.10;;;;;;;3.77;54.45;102056.19;1704347;83;21041;-76
2021/10/10 03:37:56;;;;;;;15.20;11.95;;;;;;;3.77;54.65;102050.91;1677699;83;21631;-76
2021/10/10 03:40:22;;;;;;;20.02;11.33;;;;;;;3.74;54.79;102054.61;1702973;83;21021;-78
2021/10/10 03:42:48;;;;;;;14.85;11.43;;;;;;;3.76;54.89;102054.03;1698877;84;21002;-77
2021/10/10 03:45:14;;;;;;;18.35;11.15;;;;;;;3.74;54.74;102048.50;1713071;82;21099;-74
2021/10/10 03:47:41;;;;;;;20.57;10.95;;;;;;;3.74;55.06;102045.38;1730536;82;21894;-77
2021/10/10 03:50:08;;;;;;;;;;;;;;;3.76;55.33;102045.28;1732733;82;21049;-79
2021/10/10 03:52:36;;;;;;;15.08;10.98;;;;;;;3.75;55.15;102039.62;1736317;80;20133;-77
2021/10/10 03:55:26;;;;;;;17.00;10.80;;;;;;;3.65;55.38;102038.07;1702842;83;21035;-73
2021/10/10 03:57:35;;;;;;;15.70;10.40;;;;;;;3.63;55.51;102038.17;1727846;82;21044;-74
2021/10/10 04:00:08;;;;;;;15.18;10.70;;;;;;;3.63;55.75;102036.84;1727562;82;21414;-78
2021/10/10 04:02:41;;;;;;;19.00;12.10;;;;;;;3.64;55.72;102037.23;1682830;84;21605;-74
2021/10/10 04:07:44;;;;;;;15.65;10.58;;;;;;;3.63;55.57;102032.89;1705100;83;21067;-80
2021/10/10 04:10:10;;;;;;;16.37;10.80;;;;;;;3.63;55.56;102033.37;1729504;81;21000;-78
2021/10/10 04:12:36;;;;;;;15.63;10.82;;;;;;;3.59;55.31;102038.00;1722705;79;21061;-75
2021/10/10 04:15:03;;;;;;;19.77;10.43;;;;;;;3.59;55.37;102031.89;1717845;82;21017;-78
2021/10/10 04:17:30;;;;;;;14.33;9.73;;;;;;;3.57;55.40;102030.67;1712392;83;21052;-76
2021/10/10 04:19:56;;;;;;;12.07;9.75;;;;;;;3.57;55.39;102033.30;1717363;82;21006;-75
2021/10/10 04:22:23;;;;;;;16.07;10.87;;;;;;;3.60;55.42;102025.20;1687124;83;21953;-79
2021/10/10 04:24:50;;;;;;;21.97;11.15;;;;;;;3.59;55.67;102022.19;1673567;84;20993;-75
2021/10/10 04:27:16;;;;;;;18.50;11.10;;;;;;;3.61;55.68;102026.04;1704108;83;21030;-79
2021/10/10 04:29:42;;;;;;;15.25;10.45;;;;;;;3.64;55.66;102033.28;1706402;83;21381;-74
2021/10/10 04:32:08;;;;;;;11.63;9.70;;;;;;;3.65;55.49;102032.31;1700789;83;21049;-77
2021/10/10 04:34:34;;;;;;;16.25;11.03;;;;;;;3.67;55.69;102026.50;1662541;85;21035;-78
2021/10/10 04:37:00;;;;;;;14.03;9.53;;;;;;;3.70;55.65;102034.19;1671510;85;20989;-81
2021/10/10 04:39:27;;;;;;;12.50;9.60;;;;;;;3.73;55.67;102034.47;1731683;81;21029;-85
2021/10/10 04:41:53;;;;;;;15.10;10.58;;;;;;;3.74;55.63;102030.03;1673061;84;21066;-76
2021/10/10 04:44:19;;;;;;;12.40;9.28;;;;;;;3.74;55.70;102031.35;1677137;82;20981;-77
2021/10/10 04:46:46;;;;;;;14.68;10.05;;;;;;;3.75;55.72;102031.70;1694253;83;21635;-76
2021/10/10 04:49:12;;;;;;;13.53;10.43;;;;;;;3.78;55.59;102032.83;1635688;86;21105;-76
2021/10/10 04:51:39;;;;;;;17.40;10.17;;;;;;;3.77;55.63;102034.64;1666665;84;21137;-77
2021/10/10 04:54:05;;;;;;;15.05;10.60;;;;;;;3.81;55.71;102036.59;1638990;86;21090;-76
2021/10/10 04:56:31;;;;;;;20.17;11.97;;;;;;;3.83;55.59;102032.90;1657808;86;21029;-78
2021/10/10 04:58:58;;;;;;;17.87;11.15;;;;;;;3.86;55.51;102030.06;1643337;85;21010;-77
2021/10/10 05:01:24;;;;;;;15.70;11.45;;;;;;;3.86;55.64;102028.75;1662229;84;21318;-81
2021/10/10 05:03:50;;;;;;;12.20;9.35;;;;;;;3.87;55.57;102024.30;1644611;86;20995;-78
2021/10/10 05:06:16;;;;;;;15.95;11.75;;;;;;;3.87;55.79;102033.05;1671068;85;21478;-75
2021/10/10 05:08:44;;;;;;;18.17;11.80;;;;;;;3.91;55.76;102038.97;1690130;84;21105;-75
2021/10/10 05:11:10;;;;;;;15.35;11.63;;;;;;;3.91;55.55;102037.66;1703078;81;21111;-79
2021/10/10 05:13:36;;;;;;;18.75;13.55;;;;;;;3.94;55.85;102032.19;1699410;83;21184;-78
2021/10/10 05:16:05;;;;;;;17.00;12.67;;;;;;;3.94;55.64;102038.78;1732738;81;21045;-81
2021/10/10 05:18:33;;;;;;;20.67;13.20;;;;;;;3.94;55.90;102036.59;1733014;83;21596;-77
2021/10/10 05:20:59;;;;;;;13.80;12.20;;;;;;;3.93;55.75;102034.92;1683970;83;21028;-75
2021/10/10 05:23:25;;;;;;;24.75;13.32;;;;;;;3.93;56.32;102041.03;1703956;82;21111;-76
2021/10/10 05:25:51;;;;;;;20.35;14.30;;;;;;;3.95;56.20;102041.77;1704102;83;21039;-80
2021/10/10 05:28:17;;;;;;;18.42;12.68;;;;;;;3.98;55.91;102048.66;1729684;82;20981;-77
2021/10/10 05:30:43;;;;;;;20.17;13.68;;;;;;;4.02;55.78;102049.65;1699362;83;21029;-80
2021/10/10 05:33:09;;;;;;;18.10;13.00;;;;;;;4.05;55.91;102052.09;1728241;82;21025;-77
2021/10/10 05:35:36;;;;;;;21.57;13.78;;;;;;;4.07;55.86;102050.19;1672799;86;21639;-75
2021/10/10 05:38:02;;;;;;;18.60;13.00;;;;;;;4.10;55.77;102056.56;1672146;85;21050;-81
2021/10/10 05:40:29;;;;;;;19.17;12.28;;;;;;;4.15;55.80;102050.16;1678049;84;20991;-73
2021/10/10 05:42:55;;;;;;;19.67;13.65;;;;;;;4.18;55.82;102054.75;1692311;84;21017;-78
2021/10/10 05:45:21;;;;;;;19.25;13.68;;;;;;;4.20;55.53;102053.30;1706952;82;21108;-78
2021/10/10 05:47:48;;;;;;;16.70;13.80;;;;;;;4.24;55.90;102060.09;1703790;83;21117;-76
2021/10/10 05:50:14;;;;;;;16.82;11.95;;;;;;;4.28;55.87;102058.44;1701851;83;21233;-78
2021/10/10 05:52:40;;;;;;;;;;;;;;;4.32;55.79;102057.75;1710181;83;21088;-82
2021/10/10 05:55:09;;;;;;;17.13;12.33;;;;;;;4.37;56.00;102056.97;1705301;82;20144;-78
2021/10/10 05:57:46;;;;;;;17.03;12.33;;;;;;;4.36;55.73;102060.55;1673050;84;22132;-83
2021/10/10 06:00:45;;;;;;;21.50;14.03;;;;;;;4.41;55.80;102062.41;1671461;84;21174;-78
2021/10/10 06:04:59;;;;;;;18.70;14.17;;;;;;;4.57;55.59;102053.41;1791072;78;22968;-75
2021/10/10 06:07:25;;;;;;;22.62;14.65;;;;;;;4.58;55.77;102058.59;1759544;80;21608;-79
2021/10/10 06:09:51;;;;;;;21.42;14.30;;;;;;;4.64;55.68;102054.68;1759338;80;21026;-77
2021/10/10 06:12:17;;;;;;;20.48;14.28;;;;;;;4.67;55.91;102057.95;1740814;81;21021;-79
2021/10/10 06:14:47;;;;;;;22.70;14.38;;;;;;;4.72;55.94;102058.94;1738127;81;20962;-79
2021/10/10 06:17:14;;;;;;;22.50;15.10;;;;;;;4.77;55.51;102059.95;1740267;82;21004;-73
2021/10/10 06:19:40;;;;;;;24.07;15.70;;;;;;;4.80;55.74;102057.08;1733443;82;21001;-82
2021/10/10 06:22:06;;;;;;;20.62;15.53;;;;;;;4.83;55.56;102060.34;1732548;82;20989;-73
2021/10/10 06:24:32;;;;;;;24.32;14.95;;;;;;;4.87;55.87;102057.02;1718204;82;21085;-76
2021/10/10 06:26:58;;;;;;;26.70;15.03;;;;;;;4.95;55.87;102057.79;1715942;82;20969;-75
2021/10/10 06:29:25;;;;;;;23.27;16.35;;;;;;;5.04;55.58;102055.81;1714936;82;21518;-74
2021/10/10 06:31:51;;;;;;;24.15;15.75;;;;;;;5.11;55.67;102065.00;1718680;82;21460;-79
2021/10/10 06:34:17;;;;;;;25.27;16.27;;;;;;;5.19;55.80;102058.67;1700904;82;21044;-75
2021/10/10 06:36:43;;;;;;;26.12;18.02;;;;;;;5.25;55.93;102055.60;1689407;84;21527;-76
2021/10/10 06:39:09;;;;;;;23.57;17.07;;;;;;;5.34;55.64;102057.20;1690724;83;21076;-78
2021/10/10 06:41:35;;;;;;;24.82;15.80;;;;;;;5.42;55.01;102058.30;1694832;83;21025;-76
2021/10/10 06:44:01;;;;;;;24.63;15.15;;;;;;;5.49;54.93;102058.72;1690437;83;21143;-74
2021/10/10 06:46:27;;;;;;;23.47;16.52;;;;;;;5.56;54.44;102058.63;1691119;83;21320;-86
2021/10/10 06:48:54;;;;;;;24.63;14.47;;;;;;;5.63;54.14;102065.62;1697240;83;21134;-84
2021/10/10 06:51:20;;;;;;;;;;;;;;;5.71;53.87;102059.75;1701366;83;21048;-74
2021/10/10 06:53:46;;;;;;;20.73;15.13;;;;;;;5.80;53.46;102061.72;1690615;84;20182;-77
2021/10/10 06:56:12;;;;;;;23.65;14.33;;;;;;;5.77;53.52;102058.84;1686832;83;21046;-77
2021/10/10 06:58:38;;;;;;;25.40;15.98;;;;;;;5.91;53.41;102059.59;1683854;83;21071;-84
2021/10/10 07:01:04;;;;;;;29.35;15.58;;;;;;;5.99;53.40;102059.43;1694450;83;21606;-76
2021/10/10 07:03:31;;;;;;;28.07;15.10;;;;;;;6.09;53.28;102053.44;1701772;83;21100;-76
2021/10/10 07:05:56;;;;;;;23.42;13.53;;;;;;;6.21;52.65;102057.78;1694901;83;21060;-78
2021/10/10 07:08:24;;;;;;;24.87;15.73;;;;;;;6.29;52.53;102054.54;1693966;83;21133;-77
2021/10/10 07:10:50;;;;;;;19.92;14.38;;;;;;;6.37;52.18;102053.48;1694408;83;21612;-83
2021/10/10 07:13:18;;;;;;;22.33;15.43;;;;;;;6.46;52.27;102055.88;1666069;83;21131;-82
2021/10/10 07:15:46;;;;;;;21.87;15.80;;;;;;;6.55;52.06;102057.81;1663941;86;21615;-81
2021/10/10 07:18:13;;;;;;;25.55;15.50;;;;;;;6.63;52.24;102059.41;1664262;85;21044;-76
2021/10/10 07:20:57;;;;;;;22.30;13.47;;;;;;;6.69;51.98;102056.75;1665719;86;20997;-76
2021/10/10 07:25:57;;;;;;;21.00;14.10;;;;;;;6.89;51.38;102059.97;1636560;87;21125;-76
2021/10/10 07:28:23;;;;;;;20.97;13.90;;;;;;;7.00;51.19;102055.15;1635777;87;21028;-77
2021/10/10 07:31:14;;;;;;;26.35;16.32;;;;;;;7.13;51.18;102057.66;1635377;87;21070;-79
2021/10/10 07:33:43;;;;;;;21.30;14.93;;;;;;;7.25;50.78;102054.49;1633737;86;21072;-80
2021/10/10 07:36:11;;;;;;;21.20;12.63;;;;;;;7.40;50.58;102054.56;1656880;86;21852;-80
2021/10/10 07:38:37;;;;;;;14.47;11.30;;;;;;;7.53;49.54;102051.27;1650484;86;21176;-78
2021/10/10 07:41:05;;;;;;;18.03;13.07;;;;;;;7.57;49.35;102055.84;1631827;86;21130;-80
2021/10/10 07:43:32;;;;;;;16.40;12.17;;;;;;;7.59;49.31;102054.77;1638273;86;21107;-81
2021/10/10 07:46:06;;;;;;;14.57;11.73;;;;;;;7.66;49.19;102051.59;1656857;85;22163;-80
2021/10/10 07:48:27;;;;;;;16.17;12.03;;;;;;;7.73;49.09;102052.77;1661718;85;21641;-81
2021/10/10 07:50:55;;;;;;;15.77;9.90;;;;;;;7.86;48.93;102055.25;1638082;86;21189;-80
2021/10/10 07:53:22;;;;;;;13.90;10.38;;;;;;;7.91;48.35;102055.22;1637442;87;21020;-80
2021/10/10 07:55:48;;;;;;;11.80;10.20;;;;;;;7.91;48.69;102053.89;1645037;86;21043;-80
2021/10/10 07:58:14;;;;;;;14.65;11.08;;;;;;;8.02;48.65;102055.62;1664932;85;21408;-82
2021/10/10 08:00:41;;;;;;;15.90;11.67;;;;;;;8.15;48.18;102056.77;1673416;83;21006;-81
2021/10/10 08:03:07;;;;;;;16.85;11.90;;;;;;;8.27;48.03;102051.75;1667188;85;21039;-80
2021/10/10 08:05:43;;;;;;;17.80;13.00;;;;;;;8.36;47.77;102054.95;1677943;84;21005;-81
2021/10/10 08:08:11;;;;;;;16.67;12.63;;;;;;;8.44;47.75;102055.64;1667888;84;21182;-80
2021/10/10 08:10:39;;;;;;;20.37;12.53;;;;;;;8.57;47.66;102053.61;1653755;86;21074;-80
2021/10/10 08:13:06;;;;;;;15.80;11.83;;;;;;;8.75;47.46;102051.14;1670510;85;21084;-79
2021/10/10 08:15:34;;;;;;;13.33;11.27;;;;;;;8.90;47.19;102047.63;1670909;85;21062;-80
2021/10/10 08:18:00;;;;;;;15.23;12.23;;;;;;;9.05;46.95;102052.58;1670797;86;21024;-80
2021/10/10 08:20:26;;;;;;;18.87;11.33;;;;;;;9.17;46.57;102051.47;1662905;85;21060;-82
2021/10/10 08:22:53;;;;;;;12.88;10.93;;;;;;;9.29;46.24;102047.72;1664271;85;21034;-83
2021/10/10 08:25:19;;;;;;;16.00;11.73;;;;;;;9.43;46.35;102050.45;1658754;86;21026;-78
2021/10/10 08:27:46;;;;;;;14.55;12.63;;;;;;;9.54;45.73;102051.66;1656633;86;21037;-84
2021/10/10 08:30:14;;;;;;;;;;;;;;;9.57;45.89;102049.69;1661539;86;21037;-80
2021/10/10 08:32:41;;;;;;;16.47;12.80;;;;;;;9.63;46.27;102044.66;1655798;86;20147;-80
2021/10/10 08:35:09;;;;;;;22.07;14.13;;;;;;;9.68;46.10;102039.77;1662342;84;21014;-86
2021/10/10 08:37:35;;;;;;;17.30;13.30;;;;;;;9.74;45.93;102043.69;1661200;83;21021;-80
2021/10/10 08:40:03;;;;;;;17.03;12.80;;;;;;;9.82;45.87;102042.48;1648708;86;21049;-81
2021/10/10 08:42:34;;;;;;;17.77;12.80;;;;;;;9.97;45.90;102042.05;1655749;86;21522;-79
2021/10/10 08:45:08;;;;;;;15.57;11.53;;;;;;;10.20;45.38;102042.06;1645443;85;21077;-79
2021/10/10 08:47:43;;;;;;;14.97;11.03;;;;;;;10.40;44.84;102038.06;1630589;87;21029;-83
2021/10/10 08:50:18;;;;;;;19.00;12.33;;;;;;;10.56;44.33;102039.59;1631958;86;21017;-80
2021/10/10 08:52:47;;;;;;;13.23;10.60;;;;;;;10.73;44.02;102035.81;1631862;86;21093;-77
2021/10/10 08:55:14;;;;;;;17.07;10.87;;;;;;;10.88;43.63;102037.82;1629889;86;21951;-80
2021/10/10 08:57:41;;;;;;;14.53;11.27;;;;;;;11.01;43.27;102036.64;1632713;86;21075;-79
2021/10/10 09:02:54;;;;;;;15.15;9.85;;;;;;;11.31;42.46;102035.45;1615829;88;21387;-79
2021/10/10 09:05:20;;;;;;;17.52;10.43;;;;;;;11.42;42.33;102035.73;1631162;88;22131;-83
2021/10/10 09:07:48;;;;;;;;;;;;;;;11.50;42.06;102036.63;1632829;87;21045;-80
2021/10/10 09:10:31;;;;;;;16.05;9.15;;;;;;;11.63;41.81;102029.58;1634968;88;20130;-79
2021/10/10 09:13:14;;;;;;;12.03;9.23;;;;;;;11.73;41.49;102028.66;1634546;88;21021;-79
2021/10/10 09:15:45;;;;;;;15.07;9.00;;;;;;;11.87;40.44;102024.94;1632773;86;21013;-78
2021/10/10 09:18:11;;;;;;;9.30;8.40;;;;;;;12.07;39.44;102018.08;1632325;86;21037;-78
2021/10/10 09:20:43;;;;;;;13.43;8.28;;;;;;;12.25;39.34;102011.35;1633343;86;21025;-78
2021/10/10 09:23:18;;;;;;;6.58;5.15;;;;;;;12.39;38.91;102005.90;1632682;84;21104;-77
2021/10/10 09:25:55;;;;;;;6.00;4.37;;;;;;;12.51;37.51;102000.63;1631309;88;21070;-79
2021/10/10 09:28:25;;;;;;;4.67;3.87;;;;;;;12.62;35.71;102008.36;1632812;88;21552;-77
2021/10/10 09:31:00;;;;;;;6.65;4.00;;;;;;;12.70;35.71;101997.36;1632908;88;21013;-79
2021/10/10 09:33:57;;;;;;;5.15;3.20;;;;;;;12.78;35.45;102010.76;1632744;86;21026;-76
2021/10/10 09:36:27;;;;;;;3.70;2.62;;;;;;;12.84;34.49;102010.09;1631544;88;21588;-80
2021/10/10 09:39:05;;;;;;;6.40;3.40;;;;;;;12.88;33.59;102009.28;1632042;86;21057;-78
2021/10/10 09:44:24;;;;;;;7.12;2.45;;;;;;;12.82;32.89;101990.70;1632810;88;21628;-82
2021/10/10 09:46:49;;;;;;;3.12;2.83;;;;;;;12.78;32.82;101992.03;1636142;88;21022;-76
2021/10/10 09:49:27;;;;;;;3.08;2.10;;;;;;;12.74;33.18;101987.50;1633824;88;21157;-77
2021/10/10 09:52:10;;;;;;;4.50;3.15;;;;;;;12.78;33.47;101979.98;1632789;88;21041;-78
2021/10/10 09:54:57;;;;;;;4.45;2.80;;;;;;;12.85;33.67;101992.55;1630211;88;21066;-77
2021/10/10 09:57:27;;;;;;;2.92;2.60;;;;;;;12.98;32.84;101987.24;1631427;86;21012;-78
2021/10/10 09:59:55;;;;;;;3.33;2.70;;;;;;;13.04;32.57;101981.23;1632203;88;21120;-78
2021/10/10 10:02:41;;;;;;;4.85;2.65;;;;;;;13.14;32.67;101977.05;1632706;86;21068;-82
2021/10/10 10:05:09;;;;;;;4.40;2.08;;;;;;;13.26;32.53;101981.09;1632683;86;21556;-77
2021/10/10 10:07:35;;;;;;;6.33;2.02;;;;;;;13.27;31.11;102002.84;1628101;86;20985;-79
2021/10/10 10:10:05;;;;;;;4.15;2.22;;;;;;;13.30;31.40;101982.47;1648100;86;21532;-78
2021/10/10 10:12:32;;;;;;;4.87;2.37;;;;;;;13.34;31.00;101990.50;1648004;85;21622;-78
2021/10/10 10:15:00;;;;;;;2.85;2.62;;;;;;;13.38;30.66;101983.80;1652341;86;21065;-76
2021/10/10 10:17:27;;;;;;;2.72;1.40;;;;;;;13.42;30.64;101985.65;1632911;86;21198;-79
2021/10/10 10:19:57;;;;;;;3.92;2.65;;;;;;;13.43;30.69;101972.61;1634153;86;21042;-76
2021/10/10 10:22:26;;;;;;;2.12;1.92;;;;;;;13.47;30.40;101990.02;1640121;86;20981;-76
2021/10/10 10:24:54;;;;;;;3.67;2.45;;;;;;;13.49;30.31;101973.27;1658226;86;21112;-78
2021/10/10 10:27:21;;;;;;;4.12;2.58;;;;;;;13.51;30.45;101967.23;1638509;87;21543;-82
2021/10/10 10:29:48;;;;;;;3.52;2.10;;;;;;;13.53;30.68;101967.91;1621541;86;21024;-80
2021/10/10 10:32:17;;;;;;;6.05;2.52;;;;;;;13.58;30.46;101974.08;1658088;85;21077;-79
2021/10/10 10:35:09;;;;;;;3.05;2.20;;;;;;;13.60;30.49;101967.57;1658240;85;21036;-78
2021/10/10 10:37:48;;;;;;;2.87;1.70;;;;;;;13.65;30.42;101967.56;1658251;85;20969;-77
2021/10/10 10:40:27;;;;;;;2.72;2.10;;;;;;;13.66;30.30;101953.17;1658035;86;21492;-77
2021/10/10 10:42:56;;;;;;;3.08;2.77;;;;;;;13.62;30.48;101956.69;1658401;85;21056;-77
2021/10/10 10:45:28;;;;;;;3.87;2.30;;;;;;;13.62;30.52;101954.84;1658001;85;21009;-80
2021/10/10 10:47:59;;;;;;;5.15;2.52;;;;;;;13.65;30.17;101976.43;1658256;86;21499;-77
2021/10/10 10:50:32;;;;;;;4.70;2.25;;;;;;;13.67;30.16;101938.75;1658256;86;21073;-78
2021/10/10 10:53:16;;;;;;;3.90;2.60;;;;;;;13.69;30.26;101968.38;1658484;85;21015;-77
2021/10/10 10:55:45;;;;;;;4.40;2.80;;;;;;;13.71;30.18;101932.05;1661604;86;21070;-75
2021/10/10 10:58:14;;;;;;;6.15;2.27;;;;;;;13.74;30.33;101931.72;1634925;87;21497;-75
2021/10/10 11:00:47;;;;;;;6.20;3.17;;;;;;;13.76;30.32;101939.08;1634895;87;21143;-77
2021/10/10 11:03:26;;;;;;;3.27;2.02;;;;;;;13.78;30.39;101929.84;1644091;87;21116;-81
2021/10/10 11:06:00;;;;;;;3.20;2.15;;;;;;;13.82;30.58;101923.64;1643903;87;21128;-80
2021/10/10 11:08:41;;;;;;;3.02;1.77;;;;;;;13.86;30.09;101937.55;1643372;87;21029;-79
2021/10/10 11:11:20;;;;;;;2.45;2.25;;;;;;;13.91;29.82;101917.77;1645360;86;21504;-78
2021/10/10 11:13:52;;;;;;;7.85;2.52;;;;;;;13.99;29.86;101927.12;1663130;86;21011;-78
2021/10/10 11:16:32;;;;;;;5.70;2.37;;;;;;;14.05;29.67;101932.30;1663333;86;21044;-76
2021/10/10 11:19:11;;;;;;;5.75;2.22;;;;;;;14.08;29.70;101931.45;1663030;86;21595;-76
2021/10/10 11:21:42;;;;;;;4.50;2.30;;;;;;;14.11;29.59;101927.09;1663021;86;21069;-78
2021/10/10 11:24:24;;;;;;;2.92;1.98;;;;;;;14.09;29.85;101932.28;1663255;86;21112;-79
2021/10/10 11:26:53;;;;;;;6.95;3.05;;;;;;;14.09;30.03;101930.94;1663156;86;20993;-77
2021/10/10 11:29:26;;;;;;;5.03;2.95;;;;;;;14.07;30.16;101911.03;1663219;86;21096;-78
2021/10/10 11:31:54;;;;;;;4.15;2.75;;;;;;;14.05;30.38;101921.58;1663132;83;21088;-86
2021/10/10 11:34:23;;;;;;;3.98;2.72;;;;;;;14.04;30.33;101919.41;1644633;82;21038;-77
2021/10/10 11:36:53;;;;;;;3.92;2.00;;;;;;;14.00;30.36;101906.02;1624450;88;21038;-78
2021/10/10 11:39:29;;;;;;;8.18;2.50;;;;;;;14.01;30.22;101906.34;1614281;88;21006;-76